Time;durP1;ratioP1;P1;durP2;ratioP2;P2;SDS_P1;SDS_P2;PMS_P1;PMS_P2;Temp;Humidity;BMP_temperature;BMP_pressure;BME280_temperature;BME280_humidity;BME280_pressure;Samples;Min_cycle;Max_cycle;Signal;HPM_P1;HPM_P2
2022/01/31 00:00:02;;;;;;;20.88;6.55;;;;;;;3.17;80.01;101406.81;4901016;29;20055;-89
2022/01/31 00:02:28;;;;;;;21.65;6.55;;;;;;;3.14;80.06;101356.16;4900823;29;20580;-90
2022/01/31 00:04:54;;;;;;;20.00;6.53;;;;;;;3.47;80.33;101369.84;4900729;29;20118;-90
2022/01/31 00:07:23;;;;;;;16.73;6.45;;;;;;;3.58;79.64;101369.59;4900714;29;20115;-90
2022/01/31 00:09:49;;;;;;;23.75;6.53;;;;;;;3.37;80.07;101310.94;4885628;29;20032;-90
2022/01/31 00:12:18;;;;;;;23.88;6.50;;;;;;;3.31;80.48;101298.16;4885625;29;20382;-90
2022/01/31 00:14:49;;;;;;;24.38;6.30;;;;;;;3.28;80.22;101277.00;4917788;29;20466;-91
2022/01/31 00:17:17;;;;;;;18.98;5.40;;;;;;;3.37;80.04;101289.47;4885327;29;20469;-90
2022/01/31 00:19:43;;;;;;;18.08;5.60;;;;;;;3.60;80.43;101338.09;4900184;29;20477;-90
2022/01/31 00:22:12;;;;;;;21.83;6.45;;;;;;;3.67;80.29;101304.25;4869443;29;20036;-90
2022/01/31 00:24:38;;;;;;;21.35;6.50;;;;;;;3.37;80.67;101253.78;4900296;29;20032;-90
2022/01/31 00:27:06;;;;;;;19.73;5.80;;;;;;;3.37;80.78;101261.81;4900577;29;20056;-90
2022/01/31 00:29:31;;;;;;;16.05;5.43;;;;;;;3.53;81.11;101248.50;4900448;29;20032;-90
2022/01/31 00:32:07;;;;;;;24.35;6.32;;;;;;;3.48;81.99;101262.41;4883991;29;20036;-89
2022/01/31 00:34:32;;;;;;;20.58;6.47;;;;;;;3.31;82.36;101234.63;4899875;29;20448;-90
2022/01/31 00:37:04;;;;;;;21.17;6.95;;;;;;;3.46;83.17;101240.22;4884616;29;20473;-90
2022/01/31 00:39:35;;;;;;;22.75;6.25;;;;;;;3.67;83.52;101265.84;4900162;29;20062;-89
2022/01/31 00:42:07;;;;;;;23.23;6.75;;;;;;;3.23;84.51;101190.81;4900438;29;20069;-90
2022/01/31 00:44:53;;;;;;;29.00;7.30;;;;;;;3.22;85.62;101178.41;4900248;29;20040;-89
2022/01/31 00:47:23;;;;;;;23.00;6.85;;;;;;;3.31;87.76;101220.38;4900706;29;20040;-89
2022/01/31 00:49:54;;;;;;;26.42;6.78;;;;;;;2.86;89.47;101149.03;4900598;29;20123;-90
2022/01/31 00:52:20;;;;;;;21.02;7.18;;;;;;;2.85;91.31;101150.88;4900127;29;20062;-89
2022/01/31 00:54:46;;;;;;;21.90;7.20;;;;;;;3.01;91.60;101176.94;4899958;29;20061;-89
2022/01/31 00:57:14;;;;;;;29.38;7.70;;;;;;;2.86;94.37;101167.78;4900097;29;20119;-90
2022/01/31 00:59:40;;;;;;;25.67;7.80;;;;;;;2.84;95.17;101149.19;4884491;29;20036;-90
2022/01/31 01:02:15;;;;;;;25.65;7.80;;;;;;;2.54;95.97;101099.56;4900739;29;20043;-90
2022/01/31 01:04:41;;;;;;;22.73;7.10;;;;;;;2.81;96.44;101130.75;4900187;29;20063;-90
2022/01/31 01:07:06;;;;;;;20.70;6.60;;;;;;;2.76;96.63;101130.34;4900729;29;20066;-90
2022/01/31 01:09:33;;;;;;;24.85;8.57;;;;;;;2.53;97.98;101112.13;4900527;29;20466;-89
2022/01/31 01:11:59;;;;;;;32.15;9.18;;;;;;;2.65;99.68;101107.34;4869736;29;20040;-90
2022/01/31 01:14:25;;;;;;;30.33;7.85;;;;;;;2.85;100.00;101121.41;4883732;29;20040;-89
2022/01/31 01:16:53;;;;;;;25.48;8.60;;;;;;;2.50;100.00;101066.06;4868686;29;20086;-91
2022/01/31 01:19:19;;;;;;;30.00;8.85;;;;;;;2.52;100.00;101054.19;4885187;29;20066;-90
2022/01/31 01:21:49;;;;;;;31.60;9.93;;;;;;;2.88;100.00;101121.09;4884374;29;20573;-91
2022/01/31 01:24:16;;;;;;;28.27;9.10;;;;;;;2.89;100.00;101090.56;4899580;29;20032;-90
2022/01/31 01:26:44;;;;;;;28.00;9.40;;;;;;;2.04;100.00;100938.59;4885293;29;20036;-90
2022/01/31 01:29:10;;;;;;;28.77;9.05;;;;;;;1.85;100.00;100888.78;4899510;29;20396;-90
2022/01/31 01:31:40;;;;;;;28.60;8.25;;;;;;;2.98;100.00;101061.97;4899967;29;20067;-91
2022/01/31 01:34:07;;;;;;;32.95;9.55;;;;;;;2.00;100.00;100902.41;4899374;29;20032;-90
2022/01/31 01:36:34;;;;;;;29.88;9.95;;;;;;;1.92;100.00;100884.50;4899034;29;20079;-91
2022/01/31 01:39:00;;;;;;;31.95;9.98;;;;;;;2.03;100.00;100890.56;4900102;29;20059;-91
2022/01/31 01:41:27;;;;;;;31.30;8.93;;;;;;;2.54;100.00;100944.19;4900064;29;20452;-90
2022/01/31 01:43:57;;;;;;;26.75;9.15;;;;;;;2.62;100.00;100969.19;4903605;29;20444;-90
2022/01/31 01:46:28;;;;;;;36.97;10.07;;;;;;;2.17;100.00;100881.97;4887999;29;20465;-90
2022/01/31 01:49:00;;;;;;;38.30;11.13;;;;;;;3.07;100.00;101022.66;4872507;29;20032;-90
2022/01/31 01:51:26;;;;;;;36.35;10.68;;;;;;;2.87;100.00;100963.13;4903214;29;20040;-90
2022/01/31 01:53:55;;;;;;;28.95;9.05;;;;;;;2.55;100.00;100889.63;4872117;29;20040;-90
2022/01/31 01:56:20;;;;;;;28.90;10.25;;;;;;;3.10;100.00;100966.88;4902801;29;20097;-90
2022/01/31 01:58:48;;;;;;;32.47;9.48;;;;;;;3.15;100.00;100966.38;4871375;29;20028;-90
2022/01/31 02:01:14;;;;;;;29.77;10.07;;;;;;;3.21;100.00;100954.16;4872612;29;20461;-89
2022/01/31 02:03:40;;;;;;;28.27;9.65;;;;;;;3.21;100.00;100940.75;4887198;29;20051;-90
2022/01/31 02:06:10;;;;;;;28.58;9.10;;;;;;;3.14;100.00;100929.84;4887084;29;20519;-90
2022/01/31 02:08:41;;;;;;;31.95;9.60;;;;;;;3.17;100.00;100916.09;4902629;29;20529;-90
2022/01/31 02:11:12;;;;;;;29.15;9.55;;;;;;;2.56;100.00;100811.78;4903715;29;20030;-90
2022/01/31 02:13:39;;;;;;;28.98;8.23;;;;;;;3.30;100.00;100913.78;4903568;29;20380;-90
2022/01/31 02:16:06;;;;;;;28.15;9.00;;;;;;;3.27;100.00;100900.69;4871947;29;20036;-90
2022/01/31 02:18:37;;;;;;;27.83;9.38;;;;;;;3.36;100.00;100914.13;4903063;29;20032;-90
2022/01/31 02:21:07;;;;;;;29.90;9.90;;;;;;;2.99;100.00;100836.66;4902678;29;20028;-90
2022/01/31 02:23:33;;;;;;;22.02;7.60;;;;;;;2.69;100.00;100795.25;4887292;29;20679;-90
2022/01/31 02:26:03;;;;;;;25.33;9.68;;;;;;;3.44;100.00;100903.38;4903019;29;20405;-90
2022/01/31 02:28:40;;;;;;;22.70;9.50;;;;;;;3.42;100.00;100921.50;4902978;29;20384;-91
2022/01/31 02:31:07;;;;;;;28.90;11.00;;;;;;;2.70;100.00;100790.72;4902561;29;20043;-89
2022/01/31 02:33:33;;;;;;;24.08;8.68;;;;;;;3.19;100.00;100824.75;4903982;29;20043;-89
2022/01/31 02:36:04;;;;;;;27.65;11.00;;;;;;;3.14;100.00;100823.44;4904723;29;20378;-89
2022/01/31 02:38:30;;;;;;;22.60;10.50;;;;;;;3.27;100.00;100855.09;4918491;29;20055;-89
2022/01/31 02:40:57;;;;;;;24.73;11.77;;;;;;;3.03;100.00;100802.31;4901912;29;20032;-89
2022/01/31 02:43:25;;;;;;;23.48;12.13;;;;;;;3.15;100.00;100800.97;4901263;29;20036;-89
2022/01/31 02:45:51;;;;;;;26.38;12.13;;;;;;;2.88;100.00;100740.50;4901618;29;20025;-89
2022/01/31 02:48:20;;;;;;;27.27;10.90;;;;;;;3.17;100.00;100774.00;4885801;29;20473;-89
2022/01/31 02:50:46;;;;;;;27.55;12.13;;;;;;;2.89;100.00;100723.41;4901364;29;20454;-90
2022/01/31 02:53:14;;;;;;;21.85;12.25;;;;;;;3.53;100.00;100829.97;4901103;29;20036;-90
2022/01/31 02:55:43;;;;;;;22.35;12.30;;;;;;;3.58;100.00;100808.00;4901723;29;20040;-90
2022/01/31 02:58:12;;;;;;;27.05;12.18;;;;;;;3.04;100.00;100685.19;4901354;29;20400;-89
2022/01/31 03:00:44;;;;;;;25.45;12.35;;;;;;;3.49;100.00;100772.28;4886594;29;20036;-90
2022/01/31 03:03:10;;;;;;;;;;;;;;;4.03;100.00;100852.16;4902154;29;20032;-90
2022/01/31 03:05:36;;;;;;;25.65;12.63;;;;;;;4.12;100.00;100852.97;4901620;29;19934;-90
2022/01/31 03:08:03;;;;;;;31.20;13.80;;;;;;;3.64;100.00;100757.16;4901407;29;20039;-91
2022/01/31 03:10:31;;;;;;;25.92;12.45;;;;;;;3.91;100.00;100787.25;4901502;29;20458;-90
2022/01/31 03:12:57;;;;;;;24.10;11.85;;;;;;;3.41;100.00;100718.63;4901312;29;20039;-89
2022/01/31 03:15:23;;;;;;;25.55;11.70;;;;;;;3.98;100.00;100800.84;4885757;29;20063;-90
2022/01/31 03:17:50;;;;;;;28.45;10.95;;;;;;;3.50;100.00;100731.88;4901715;29;20036;-90
2022/01/31 03:20:19;;;;;;;29.27;12.10;;;;;;;3.56;100.00;100711.56;4901579;29;20028;-90
2022/01/31 03:22:45;;;;;;;25.80;10.07;;;;;;;4.03;100.00;100772.44;4901365;29;20447;-90
2022/01/31 03:25:11;;;;;;;22.67;9.05;;;;;;;3.96;100.00;100757.22;4901733;29;20382;-90
2022/01/31 03:27:41;;;;;;;24.35;9.00;;;;;;;3.67;100.00;100713.03;4901638;29;20126;-90
2022/01/31 03:30:11;;;;;;;30.63;8.65;;;;;;;4.15;100.00;100775.59;4901260;29;20400;-90
2022/01/31 03:32:39;;;;;;;27.77;7.93;;;;;;;4.41;100.00;100816.59;4901557;29;20122;-90
2022/01/31 03:35:07;;;;;;;26.05;7.90;;;;;;;3.60;100.00;100691.44;4901845;29;20393;-89
2022/01/31 03:37:34;;;;;;;28.70;7.95;;;;;;;4.43;100.00;100819.94;4901350;29;20457;-91
2022/01/31 03:40:03;;;;;;;34.20;7.50;;;;;;;3.61;100.00;100674.31;4901285;29;20409;-91
2022/01/31 03:42:29;;;;;;;30.70;7.60;;;;;;;4.12;100.00;100742.88;4901679;29;20405;-92
2022/01/31 03:44:56;;;;;;;26.50;6.63;;;;;;;3.64;100.00;100676.66;4901694;29;20036;-91
2022/01/31 03:47:24;;;;;;;23.45;6.45;;;;;;;4.08;100.00;100738.88;4901663;29;20416;-91
2022/01/31 03:49:51;;;;;;;35.63;6.20;;;;;;;3.71;100.00;100655.34;4901113;29;20070;-91
2022/01/31 03:52:17;;;;;;;32.05;6.18;;;;;;;3.77;100.00;100665.34;4900903;29;20462;-91
2022/01/31 03:54:47;;;;;;;23.05;4.82;;;;;;;3.85;100.00;100688.63;4901087;29;20401;-91
2022/01/31 03:57:14;;;;;;;29.80;5.30;;;;;;;4.07;100.00;100739.88;4885581;29;20131;-91
2022/01/31 03:59:40;;;;;;;25.85;4.82;;;;;;;4.49;100.00;100797.75;4900503;29;20414;-91
2022/01/31 04:02:07;;;;;;;24.65;4.70;;;;;;;4.27;100.00;100765.28;4901062;29;20043;-91
2022/01/31 04:04:35;;;;;;;24.23;4.78;;;;;;;4.54;100.00;100787.31;4885866;29;20043;-91
2022/01/31 04:07:01;;;;;;;23.23;4.32;;;;;;;3.77;100.00;100660.00;4884863;29;20409;-91
2022/01/31 04:09:30;;;;;;;23.73;3.95;;;;;;;3.85;100.00;100669.84;4900969;29;20020;-91
2022/01/31 04:11:56;;;;;;;20.50;4.30;;;;;;;3.97;100.00;100698.00;4900898;29;20028;-90
2022/01/31 04:14:26;;;;;;;21.10;3.80;;;;;;;3.77;100.00;100702.94;4900800;29;20493;-91
2022/01/31 04:16:54;;;;;;;23.02;4.47;;;;;;;3.90;100.00;100680.91;4900694;29;20621;-91
2022/01/31 04:19:20;;;;;;;21.27;3.60;;;;;;;4.45;100.00;100753.44;4900835;29;20040;-90
2022/01/31 04:21:46;;;;;;;22.98;3.75;;;;;;;4.39;100.00;100763.88;4900975;29;20039;-91
2022/01/31 04:24:19;;;;;;;17.17;3.35;;;;;;;4.25;100.00;100700.16;4885282;29;20040;-90
2022/01/31 04:26:55;;;;;;;22.75;3.92;;;;;;;4.64;100.00;100752.16;4900638;29;20118;-90
2022/01/31 04:29:24;;;;;;;16.63;3.50;;;;;;;3.96;100.00;100647.16;4886437;29;20063;-90
2022/01/31 04:31:51;;;;;;;19.77;3.30;;;;;;;4.17;100.00;100676.06;4900416;29;20032;-90
2022/01/31 04:34:18;;;;;;;22.02;3.28;;;;;;;4.76;100.00;100761.47;4884883;29;20157;-91
2022/01/31 04:36:45;;;;;;;18.70;3.28;;;;;;;4.01;100.00;100661.69;4900322;29;20477;-90
2022/01/31 04:39:16;;;;;;;19.92;3.35;;;;;;;4.46;100.00;100721.03;4899844;29;20055;-91
2022/01/31 04:41:46;;;;;;;17.05;3.17;;;;;;;4.28;99.47;100697.13;4900642;29;20123;-91
2022/01/31 04:44:13;;;;;;;22.10;3.28;;;;;;;4.49;99.73;100726.03;4900579;29;20076;-91
2022/01/31 04:46:49;;;;;;;16.60;3.10;;;;;;;3.96;99.40;100658.72;4885306;29;20036;-91
2022/01/31 04:49:16;;;;;;;25.17;4.10;;;;;;;3.97;97.88;100656.88;4900658;29;20405;-91
2022/01/31 04:51:43;;;;;;;19.88;3.30;;;;;;;4.65;97.45;100776.16;4900273;29;20500;-91
2022/01/31 04:54:08;;;;;;;22.92;3.20;;;;;;;4.47;97.01;100732.59;4900938;29;20173;-91
2022/01/31 04:56:38;;;;;;;19.88;3.55;;;;;;;4.68;96.55;100772.25;4900782;29;20123;-90
2022/01/31 04:59:04;;;;;;;17.73;2.90;;;;;;;4.19;96.37;100690.97;4885400;29;20032;-90
2022/01/31 05:01:31;;;;;;;19.13;3.60;;;;;;;4.62;96.29;100760.38;4899996;29;20028;-91
2022/01/31 05:03:59;;;;;;;19.75;3.22;;;;;;;4.62;95.93;100755.03;4900051;29;20032;-90
2022/01/31 05:06:35;;;;;;;20.73;3.40;;;;;;;3.89;94.25;100636.28;4899898;29;20024;-90
2022/01/31 05:09:04;;;;;;;17.70;3.30;;;;;;;3.85;93.67;100640.31;4899739;29;20047;-90
2022/01/31 05:11:30;;;;;;;22.55;3.60;;;;;;;4.66;93.18;100759.00;4899957;29;20035;-90
2022/01/31 05:13:59;;;;;;;19.02;3.20;;;;;;;3.85;93.03;100629.59;4899534;29;20024;-90
2022/01/31 05:16:24;;;;;;;19.10;3.40;;;;;;;4.33;92.70;100705.50;4900048;29;20392;-90
2022/01/31 05:18:50;;;;;;;16.20;2.97;;;;;;;3.85;93.43;100618.84;4888258;29;20043;-90
2022/01/31 05:21:15;;;;;;;20.75;3.25;;;;;;;4.36;92.21;100674.75;4903604;29;20138;-90
2022/01/31 05:23:46;;;;;;;16.88;3.53;;;;;;;3.84;90.88;100598.41;4904015;29;20035;-90
2022/01/31 05:26:12;;;;;;;22.92;3.35;;;;;;;3.97;91.08;100638.06;4903302;29;20051;-91
2022/01/31 05:28:38;;;;;;;21.75;3.38;;;;;;;4.10;90.82;100616.00;4913966;29;20111;-90
2022/01/31 05:31:05;;;;;;;21.73;3.30;;;;;;;4.68;91.24;100718.50;4909477;29;20442;-90
2022/01/31 05:33:34;;;;;;;24.55;3.90;;;;;;;3.96;89.80;100607.72;4903340;29;20036;-90
2022/01/31 05:36:00;;;;;;;20.10;3.20;;;;;;;4.50;90.35;100673.13;4903653;29;20032;-90
2022/01/31 05:38:26;;;;;;;21.10;3.80;;;;;;;4.28;92.71;100667.59;4903092;29;20032;-90
2022/01/31 05:40:52;;;;;;;18.95;3.15;;;;;;;4.22;92.71;100660.22;4887823;29;20067;-90
2022/01/31 05:43:20;;;;;;;21.23;4.13;;;;;;;4.22;92.94;100644.97;4887474;29;20401;-91
2022/01/31 05:45:46;;;;;;;13.98;2.88;;;;;;;3.86;92.76;100583.78;4887358;29;20036;-90
2022/01/31 05:48:12;;;;;;;18.85;3.22;;;;;;;3.79;93.03;100582.00;4887761;29;20397;-90
2022/01/31 05:50:38;;;;;;;18.23;3.30;;;;;;;3.75;93.81;100588.72;4902835;29;20032;-90
2022/01/31 05:53:06;;;;;;;20.30;3.33;;;;;;;3.82;94.86;100578.94;4902870;29;20028;-90
2022/01/31 05:55:35;;;;;;;21.67;3.58;;;;;;;4.29;96.71;100680.00;4902909;29;20047;-89
2022/01/31 05:58:04;;;;;;;16.90;2.80;;;;;;;3.42;97.02;100562.06;4902510;29;20084;-90
2022/01/31 06:00:33;;;;;;;21.50;3.20;;;;;;;3.29;99.30;100582.25;4902887;29;20036;-90
2022/01/31 06:02:59;;;;;;;23.50;3.63;;;;;;;3.19;100.00;100581.63;4872484;29;20080;-90
2022/01/31 06:05:27;;;;;;;20.40;3.10;;;;;;;3.19;100.00;100592.34;4902740;29;20036;-90
2022/01/31 06:07:53;;;;;;;22.63;3.55;;;;;;;3.82;100.00;100700.59;4902741;29;20043;-90
2022/01/31 06:10:23;;;;;;;18.85;3.10;;;;;;;3.39;100.00;100651.75;4887008;29;20047;-90
2022/01/31 06:12:51;;;;;;;22.73;3.42;;;;;;;3.79;100.00;100716.19;4902546;29;20024;-90
2022/01/31 06:15:17;;;;;;;28.60;4.15;;;;;;;3.25;100.00;100657.84;4873055;29;20462;-88
2022/01/31 06:25:05;;;;;;;20.58;3.40;;;;;;;3.07;100.00;100629.44;4894823;29;20109;-89
2022/01/31 06:27:30;;;;;;;22.90;3.95;;;;;;;3.02;100.00;100621.03;4902064;29;20032;-88
2022/01/31 06:40:51;;;;;;;20.02;3.05;;;;;;;3.60;100.00;100730.84;4787975;29;20073;-94
2022/01/31 08:05:09;;;;;;;23.75;4.35;;;;;;;2.74;100.00;100666.16;5917760;23;20101;-93
2022/01/31 08:15:13;;;;;;;;;;;;;;;;;;;;;
2022/01/31 08:21:42;;;;;;;30.83;4.38;;;;;;;2.84;100.00;100623.09;4901858;29;20115;-95
2022/01/31 08:28:00;;;;;;;31.70;4.90;;;;;;;2.83;100.00;100648.22;4842167;29;20095;-92
2022/01/31 08:58:53;;;;;;;38.55;5.40;;;;;;;3.14;100.00;100712.66;4984026;23;20449;-92
2022/01/31 09:01:34;;;;;;;38.97;5.38;;;;;;;3.38;100.00;100741.31;4901017;29;20024;-92
2022/01/31 10:17:34;;;;;;;38.67;6.15;;;;;;;3.62;100.00;100885.28;4825275;29;20040;-96
2022/01/31 11:07:45;;;;;;;34.17;5.53;;;;;;;3.15;99.73;100873.38;4699813;30;20048;-95
2022/01/31 12:00:36;;;;;;;49.30;7.72;;;;;;;3.76;100.00;100993.78;5238793;23;20146;-96
2022/01/31 14:20:37;;;;;;;54.63;8.25;;;;;;;3.02;100.00;101076.75;4962020;24;20458;-93
2022/01/31 14:24:42;;;;;;;56.78;8.60;;;;;;;3.65;100.00;101171.25;4726178;30;20452;-92
2022/01/31 14:30:55;;;;;;;;;;;;;;;;;;;;;
2022/01/31 14:55:00;;;;;;;57.97;9.18;;;;;;;3.64;100.00;101236.63;4701220;30;20056;-94
2022/01/31 15:04:56;;;;;;;;;;;;;;;;;;;;;
2022/01/31 15:11:21;;;;;;;63.40;9.65;;;;;;;2.97;100.00;101152.28;4735165;30;20037;-94
2022/01/31 15:17:44;;;;;;;;;;;;;;;;;;;;;
2022/01/31 15:20:36;;;;;;;;;;;;;;;;;;;;;
2022/01/31 15:23:56;;;;;;;;;;;;;;;;;;;;;
2022/01/31 15:34:10;;;;;;;54.25;7.40;;;;;;;2.96;100.00;101201.53;4699930;30;20041;-94
2022/01/31 15:40:35;;;;;;;;;;;;;;;;;;;;;
2022/01/31 15:46:39;;;;;;;47.38;7.82;;;;;;;3.02;100.00;101253.69;4759116;30;20126;-94
2022/01/31 15:49:37;;;;;;;51.90;7.95;;;;;;;3.10;100.00;101266.31;4769794;30;20043;-94
2022/01/31 15:52:33;;;;;;;50.38;8.20;;;;;;;3.75;100.00;101350.91;4743684;30;20417;-94
2022/01/31 15:55:45;;;;;;;58.88;8.82;;;;;;;3.09;100.00;101272.69;4739394;30;20527;-94
2022/01/31 15:58:36;;;;;;;65.55;9.93;;;;;;;3.76;100.00;101366.03;4747354;30;20459;-94
2022/01/31 16:01:21;;;;;;;51.20;6.73;;;;;;;3.09;100.00;101289.59;4755375;30;20838;-94
2022/01/31 16:04:05;;;;;;;51.80;7.53;;;;;;;2.83;100.00;101230.56;4757054;30;20031;-93
2022/01/31 16:07:10;;;;;;;;;;;;;;;;;;;;;
2022/01/31 16:09:58;;;;;;;;;;;;;;;;;;;;;
2022/01/31 16:13:04;;;;;;;48.85;8.82;;;;;;;3.47;100.00;101369.84;4756956;30;20512;-94
2022/01/31 16:15:55;;;;;;;53.47;9.10;;;;;;;2.88;100.00;101295.28;4740687;30;20393;-94
2022/01/31 16:29:12;;;;;;;47.08;7.47;;;;;;;3.53;100.00;101424.72;4745479;30;20044;-93
2022/01/31 16:32:25;;;;;;;45.83;7.20;;;;;;;2.84;100.00;101328.75;4720272;30;20129;-94
2022/01/31 16:35:27;;;;;;;49.28;7.40;;;;;;;2.83;100.00;101327.06;4713349;30;20063;-94
2022/01/31 16:41:49;;;;;;;47.50;7.82;;;;;;;2.91;100.00;101340.56;4759387;30;20043;-94
2022/01/31 16:44:53;;;;;;;;;;;;;;;;;;;;;
2022/01/31 16:47:55;;;;;;;;;;;;;;;;;;;;;
2022/01/31 17:00:32;;;;;;;38.90;7.32;;;;;;;3.18;98.61;101399.63;4716213;30;20044;-94
2022/01/31 17:03:24;;;;;;;;;;;;;;;;;;;;;
2022/01/31 17:06:22;;;;;;;51.90;8.00;;;;;;;3.30;96.49;101403.75;4754406;30;20497;-94
2022/01/31 17:09:12;;;;;;;53.67;8.32;;;;;;;3.28;97.33;101429.88;4754634;30;20393;-94
2022/01/31 17:12:28;;;;;;;;;;;;;;;;;;;;;
2022/01/31 17:15:14;;;;;;;43.40;7.68;;;;;;;3.20;98.34;101416.38;4739390;30;20437;-92
2022/01/31 17:17:58;;;;;;;51.80;8.10;;;;;;;3.26;99.44;101445.28;4736672;30;20082;-93
2022/01/31 17:20:50;;;;;;;40.40;6.82;;;;;;;3.23;99.66;101448.25;4757463;30;20101;-93
2022/01/31 17:24:36;;;;;;;53.10;8.57;;;;;;;3.01;99.25;101420.06;4758207;30;20036;-93
2022/01/31 17:30:20;;;;;;;;;;;;;;;;;;;;;
2022/01/31 17:33:33;;;;;;;32.53;5.78;;;;;;;3.11;98.03;101436.91;4738161;30;19921;-94
2022/01/31 17:36:22;;;;;;;48.28;6.72;;;;;;;3.50;98.20;101509.06;4775114;30;20066;-94
2022/01/31 17:39:13;;;;;;;41.65;7.43;;;;;;;3.63;97.92;101554.28;4769095;30;20027;-94
2022/01/31 17:42:04;;;;;;;46.53;7.50;;;;;;;3.88;97.00;101584.91;4760838;30;20568;-94
2022/01/31 17:44:59;;;;;;;39.47;7.03;;;;;;;3.26;95.94;101498.91;4743318;30;20063;-93
2022/01/31 17:47:27;;;;;;;38.13;7.00;;;;;;;3.63;96.74;101565.88;4758354;30;20042;-93
2022/01/31 17:50:01;;;;;;;41.35;7.68;;;;;;;3.68;96.39;101574.31;4758268;30;20122;-93
2022/01/31 17:52:33;;;;;;;48.70;6.97;;;;;;;3.86;97.91;101593.09;4758513;30;20094;-93
2022/01/31 17:54:59;;;;;;;47.05;7.13;;;;;;;3.30;97.01;101513.72;4758875;30;20036;-93
2022/01/31 17:57:57;;;;;;;;;;;;;;;;;;;;;
2022/01/31 18:00:33;;;;;;;47.75;8.18;;;;;;;3.66;97.45;101615.72;4771713;30;20036;-93
2022/01/31 18:05:58;;;;;;;45.55;6.90;;;;;;;3.21;97.92;101557.53;4773956;30;20044;-93
2022/01/31 18:09:02;;;;;;;43.10;7.40;;;;;;;3.55;97.44;101605.22;4758757;30;20047;-93
2022/01/31 18:11:40;;;;;;;43.88;6.57;;;;;;;3.41;98.48;101591.31;4762769;30;20044;-93
2022/01/31 18:14:11;;;;;;;38.85;6.80;;;;;;;3.18;98.19;101577.44;4756802;30;20413;-93
2022/01/31 18:16:54;;;;;;;38.55;6.40;;;;;;;3.18;98.38;101571.25;4759234;30;20420;-93
2022/01/31 18:20:34;;;;;;;;;;;;;;;;;;;;;
2022/01/31 18:31:17;;;;;;;54.78;8.02;;;;;;;3.21;96.17;101609.31;4717834;30;20045;-94
2022/01/31 18:47:35;;;;;;;;;;;;;;;;;;;;;
2022/01/31 18:54:14;;;;;;;;;;;;;;;;;;;;;
2022/01/31 19:07:50;;;;;;;;;;;;;;;;;;;;;
2022/01/31 19:14:08;;;;;;;33.63;6.07;;;;;;;4.08;89.49;101794.25;4700897;30;20519;-94
2022/01/31 19:17:11;;;;;;;37.63;6.25;;;;;;;3.99;90.13;101802.19;4681240;30;20397;-94
2022/01/31 19:19:54;;;;;;;35.03;5.50;;;;;;;3.27;89.39;101696.41;4696804;30;20113;-92
2022/01/31 19:23:14;;;;;;;39.67;6.78;;;;;;;3.98;90.49;101818.44;4711163;30;20092;-93
2022/01/31 21:09:59;;;;;;;25.08;3.80;;;;;;;2.43;92.49;101949.75;4555535;31;20053;-94
2022/01/31 21:20:14;;;;;;;;;;;;;;;;;;;;;
2022/01/31 21:30:12;;;;;;;18.10;3.70;;;;;;;2.16;95.81;101902.16;4681623;30;20056;-93
2022/01/31 21:32:49;;;;;;;21.15;3.95;;;;;;;2.14;96.44;101918.34;4675739;30;20141;-93
2022/01/31 21:35:20;;;;;;;23.17;3.58;;;;;;;2.51;96.52;101975.88;4712789;30;20396;-91
2022/01/31 21:37:49;;;;;;;26.05;3.67;;;;;;;2.16;96.36;101919.06;4712389;30;20120;-88
2022/01/31 21:40:16;;;;;;;20.42;3.50;;;;;;;2.43;96.48;101971.19;4711801;30;20120;-88
2022/01/31 21:42:47;;;;;;;21.48;3.55;;;;;;;2.37;95.92;101961.84;4692072;30;20072;-88
2022/01/31 21:45:18;;;;;;;20.48;3.20;;;;;;;2.59;96.14;102016.25;4768060;30;20044;-88
2022/01/31 21:47:45;;;;;;;19.70;3.03;;;;;;;2.21;95.86;101964.19;4768404;30;20048;-88
2022/01/31 21:50:12;;;;;;;18.50;3.03;;;;;;;2.06;96.16;101953.81;4782631;29;20035;-88
2022/01/31 21:52:39;;;;;;;18.83;3.17;;;;;;;1.88;96.58;101950.06;4798189;29;20040;-88
2022/01/31 21:55:06;;;;;;;22.45;3.30;;;;;;;1.78;96.81;101952.66;4770453;30;20058;-88
2022/01/31 21:57:38;;;;;;;19.08;3.05;;;;;;;2.22;97.04;102032.84;4773691;30;20039;-88
2022/01/31 22:00:04;;;;;;;19.58;3.95;;;;;;;1.72;96.95;101946.00;4770944;30;20028;-88
2022/01/31 22:02:29;;;;;;;20.35;2.92;;;;;;;1.93;96.48;101985.28;4785979;29;20051;-88
2022/01/31 22:04:57;;;;;;;16.35;3.13;;;;;;;2.10;96.88;102019.50;4786065;29;20032;-89
2022/01/31 22:07:25;;;;;;;15.52;2.70;;;;;;;1.68;96.98;101951.72;4800851;29;20074;-88
2022/01/31 22:10:11;;;;;;;15.63;3.22;;;;;;;2.22;97.37;102059.59;4785695;29;20123;-88
2022/01/31 22:12:39;;;;;;;14.55;2.47;;;;;;;1.95;97.25;102036.88;4771488;30;20038;-89
2022/01/31 22:15:10;;;;;;;17.20;2.75;;;;;;;2.05;96.81;102066.38;4785956;29;20130;-89
2022/01/31 22:17:56;;;;;;;17.20;2.30;;;;;;;2.06;97.26;102060.06;4771022;30;20032;-88
2022/01/31 22:20:21;;;;;;;20.10;3.33;;;;;;;1.68;97.28;102007.91;4783420;30;20067;-88
2022/01/31 22:22:47;;;;;;;18.42;3.03;;;;;;;1.62;97.21;101989.72;4770835;30;20059;-88
2022/01/31 22:25:12;;;;;;;13.45;2.78;;;;;;;1.79;97.12;102020.38;4785407;29;20408;-88
2022/01/31 22:27:38;;;;;;;15.40;2.58;;;;;;;1.33;97.45;101951.06;4785750;29;20051;-88
2022/01/31 22:30:06;;;;;;;12.25;2.03;;;;;;;1.56;97.49;101994.59;4800607;29;20096;-89
2022/01/31 22:32:36;;;;;;;13.00;2.30;;;;;;;1.73;97.24;102032.47;4770599;30;20055;-88
2022/01/31 22:35:05;;;;;;;16.00;2.50;;;;;;;1.37;97.30;101975.69;4771074;30;20064;-88
2022/01/31 22:37:31;;;;;;;15.60;2.63;;;;;;;1.16;97.43;101943.56;4800761;29;20468;-88
2022/01/31 22:39:57;;;;;;;13.68;2.47;;;;;;;1.73;96.87;102032.47;4770746;30;20114;-88
2022/01/31 22:42:25;;;;;;;16.65;2.75;;;;;;;1.11;97.24;101937.75;4770896;30;20110;-89
2022/01/31 22:44:51;;;;;;;19.88;2.33;;;;;;;1.27;97.82;101982.78;4770777;30;20146;-88
2022/01/31 22:47:16;;;;;;;16.10;2.70;;;;;;;1.02;98.01;101932.19;4771261;30;20043;-88
2022/01/31 22:49:42;;;;;;;14.00;2.58;;;;;;;1.67;98.15;102032.97;4800623;29;20489;-89
2022/01/31 22:52:07;;;;;;;18.85;2.53;;;;;;;1.14;98.04;101942.88;4770417;30;20052;-89
2022/01/31 22:54:33;;;;;;;16.90;2.90;;;;;;;1.45;98.27;101977.72;4770406;30;20058;-88
2022/01/31 22:56:58;;;;;;;17.55;2.78;;;;;;;1.03;98.88;101911.66;4770532;30;20043;-88
2022/01/31 22:59:33;;;;;;;13.98;2.70;;;;;;;1.02;98.91;101916.16;4800141;29;20397;-89
2022/01/31 23:02:00;;;;;;;15.93;3.03;;;;;;;1.34;99.24;101976.78;4786709;29;20036;-89
2022/01/31 23:04:25;;;;;;;15.23;2.65;;;;;;;1.49;99.31;102008.59;4800273;29;20035;-89
2022/01/31 23:06:50;;;;;;;14.50;2.67;;;;;;;1.49;99.41;102016.63;4770564;30;20043;-89
2022/01/31 23:09:19;;;;;;;19.25;2.90;;;;;;;0.89;99.87;101934.19;4770418;30;20448;-89
2022/01/31 23:11:48;;;;;;;20.40;3.47;;;;;;;1.30;100.00;102004.78;4784636;29;20085;-88
2022/01/31 23:14:23;;;;;;;17.00;2.70;;;;;;;0.76;100.00;101926.31;4784942;29;20490;-89
2022/01/31 23:16:59;;;;;;;22.70;3.17;;;;;;;0.94;100.00;101965.88;4784131;30;20047;-89
2022/01/31 23:19:33;;;;;;;18.23;2.63;;;;;;;0.73;100.00;101915.03;4756431;30;20028;-89
2022/01/31 23:54:31;;;;;;;20.48;2.80;;;;;;;0.84;100.00;101988.00;4802608;29;20439;-90
